Terminal Aerodrome Forecast
Issued by NWS

Home | Current Version | Previous Version | Text Only | Print | Product List | Glossary On
Versions: 1 2 3 4 5 6 7 8 9 10 11 12 13 14 15 16 17 18 19 20 21 22 23 24 25 26 27 28
000
FTUS45 KLKN 091724
TAFELY
TAF
KELY 091724Z 0918/1018 19010KT P6SM FEW060 BKN100
     FM100500 20014KT P6SM BKN050 OVC080
     FM101000 19013G19KT 6SM -SHSN BKN030=

USA.gov is the U.S. government's official web portal to all federal, state and local government web resources and services.